createdAt,value
2022-08-26T00:01:30.724Z,38.64
2022-08-26T00:03:57.358Z,38.33
2022-08-26T00:06:24.452Z,38.25
2022-08-26T00:08:51.219Z,38.40
2022-08-26T00:11:26.790Z,38.86
2022-08-26T00:13:54.416Z,38.27
2022-08-26T00:16:21.046Z,38.61
2022-08-26T00:18:47.615Z,38.43
2022-08-26T00:21:14.188Z,39.49
2022-08-26T00:23:40.732Z,39.25
2022-08-26T00:26:29.229Z,39.17
2022-08-26T00:28:56.511Z,39.21
2022-08-26T00:31:23.071Z,39.65
2022-08-26T00:33:49.782Z,39.55
2022-08-26T00:36:20.274Z,40.46
2022-08-26T00:38:48.046Z,40.03
2022-08-26T00:41:14.660Z,40.14
2022-08-26T00:43:47.562Z,40.65
2022-08-26T00:46:18.459Z,40.72
2022-08-26T00:48:47.040Z,40.84
2022-08-26T00:51:18.183Z,41.30
2022-08-26T00:53:57.526Z,40.83
2022-08-26T00:56:28.573Z,41.24
2022-08-26T00:58:56.795Z,41.07
2022-08-26T01:01:23.530Z,40.67
2022-08-26T01:03:50.910Z,40.89
2022-08-26T01:06:19.104Z,40.62
2022-08-26T01:08:45.756Z,40.84
2022-08-26T01:11:12.682Z,40.86
2022-08-26T01:13:39.786Z,40.87
2022-08-26T01:16:08.292Z,41.34
2022-08-26T01:18:35.980Z,40.89
2022-08-26T01:21:19.034Z,40.75
2022-08-26T01:23:48.027Z,41.34
2022-08-26T01:26:25.070Z,41.08
2022-08-26T01:28:55.895Z,41.12
2022-08-26T01:31:25.011Z,41.40
2022-08-26T01:33:55.487Z,41.44
2022-08-26T01:36:24.386Z,41.45
2022-08-26T01:38:51.879Z,41.66
2022-08-26T01:41:19.878Z,41.33
2022-08-26T01:43:55.682Z,41.88
2022-08-26T01:46:22.958Z,41.67
2022-08-26T01:48:54.651Z,41.60
2022-08-26T01:51:22.752Z,41.12
2022-08-26T01:53:50.548Z,41.53
2022-08-26T01:56:17.156Z,41.85
2022-08-26T01:58:51.248Z,41.92
2022-08-26T02:01:19.147Z,42.37
2022-08-26T02:03:56.787Z,43.06
2022-08-26T02:06:25.850Z,42.89
2022-08-26T02:08:55.356Z,42.75
2022-08-26T02:11:22.065Z,43.06
2022-08-26T02:13:52.005Z,43.14
2022-08-26T02:16:21.860Z,42.68
2022-08-26T02:18:49.069Z,43.28
2022-08-26T02:21:19.265Z,43.25
2022-08-26T02:23:46.360Z,43.06
2022-08-26T02:26:18.126Z,43.22
2022-08-26T02:28:55.651Z,43.32
2022-08-26T02:31:22.842Z,43.67
2022-08-26T02:33:49.486Z,43.80
2022-08-26T02:36:21.134Z,43.75
2022-08-26T02:38:47.837Z,43.34
2022-08-26T02:41:14.600Z,43.92
2022-08-26T02:43:41.361Z,43.59
2022-08-26T02:46:07.972Z,44.07
2022-08-26T02:48:35.440Z,43.77
2022-08-26T02:51:02.506Z,44.55
2022-08-26T02:53:31.887Z,43.75
2022-08-26T02:55:58.882Z,43.82
2022-08-26T02:58:26.387Z,43.94
2022-08-26T03:00:53.779Z,44.17
2022-08-26T03:03:23.478Z,44.28
2022-08-26T03:05:50.456Z,44.39
2022-08-26T03:08:17.382Z,44.59
2022-08-26T03:10:44.186Z,44.08
2022-08-26T03:13:11.407Z,43.81
2022-08-26T03:15:38.888Z,43.22
2022-08-26T03:18:05.504Z,43.72
2022-08-26T03:20:34.273Z,43.57
2022-08-26T03:23:01.388Z,43.64
2022-08-26T03:25:30.443Z,43.40
2022-08-26T03:27:57.044Z,43.28
2022-08-26T03:30:45.425Z,43.45
2022-08-26T03:33:13.742Z,43.81
2022-08-26T03:35:41.666Z,43.80
2022-08-26T03:38:08.473Z,44.19
2022-08-26T03:40:36.581Z,44.29
2022-08-26T03:43:04.086Z,44.04
2022-08-26T03:45:31.130Z,43.69
2022-08-26T03:47:58.362Z,43.45
2022-08-26T03:50:25.043Z,43.93
2022-08-26T03:52:53.968Z,43.20
2022-08-26T03:55:23.883Z,43.31
2022-08-26T03:57:52.576Z,43.62
2022-08-26T04:00:19.795Z,44.07
2022-08-26T04:02:48.713Z,43.81
2022-08-26T04:05:17.420Z,43.28
2022-08-26T04:07:44.921Z,43.58
2022-08-26T04:10:13.203Z,44.13
2022-08-26T04:12:39.947Z,43.95
2022-08-26T04:15:11.621Z,43.98
2022-08-26T04:17:38.203Z,44.15
2022-08-26T04:20:05.942Z,44.20
2022-08-26T04:22:33.803Z,44.22
2022-08-26T04:25:00.378Z,43.78
2022-08-26T04:27:27.198Z,43.96
2022-08-26T04:29:55.281Z,43.58
2022-08-26T04:32:22.069Z,44.17
2022-08-26T04:34:48.811Z,43.83
2022-08-26T04:37:16.305Z,43.81
2022-08-26T04:39:44.583Z,43.87
2022-08-26T04:42:13.380Z,44.39
2022-08-26T04:44:41.049Z,44.12
2022-08-26T04:47:07.700Z,44.51
2022-08-26T04:49:35.751Z,44.16
2022-08-26T04:52:02.700Z,44.25
2022-08-26T04:54:29.261Z,44.23
2022-08-26T04:56:55.906Z,44.01
2022-08-26T04:59:22.935Z,43.56
2022-08-26T05:01:52.268Z,43.74
2022-08-26T05:04:19.643Z,43.37
2022-08-26T05:06:47.118Z,43.36
2022-08-26T05:09:15.345Z,43.49
2022-08-26T05:11:41.960Z,43.39
2022-08-26T05:14:08.699Z,43.65
2022-08-26T05:16:35.300Z,43.85
2022-08-26T05:19:03.510Z,44.14
2022-08-26T05:21:30.181Z,44.15
2022-08-26T05:23:57.373Z,43.72
2022-08-26T05:26:29.250Z,43.81
2022-08-26T05:28:56.478Z,44.21
2022-08-26T05:31:24.377Z,43.53
2022-08-26T05:33:51.224Z,43.83
2022-08-26T05:36:21.573Z,43.60
2022-08-26T05:38:48.711Z,43.68
2022-08-26T05:41:16.747Z,43.14
2022-08-26T05:43:43.657Z,43.62
2022-08-26T05:46:10.605Z,43.32
2022-08-26T05:48:37.295Z,43.25
2022-08-26T05:51:08.520Z,43.45
2022-08-26T05:53:35.556Z,43.85
2022-08-26T05:56:02.905Z,44.40
2022-08-26T05:58:29.531Z,44.42
2022-08-26T06:00:57.786Z,44.50
2022-08-26T06:03:24.359Z,44.39
2022-08-26T06:05:50.904Z,44.21
2022-08-26T06:08:19.292Z,44.28
2022-08-26T06:10:51.007Z,43.97
2022-08-26T06:13:20.299Z,44.29
2022-08-26T06:15:48.337Z,44.24
2022-08-26T06:18:16.709Z,44.23
2022-08-26T06:20:49.564Z,43.95
2022-08-26T06:23:42.927Z,43.83
2022-08-26T06:26:11.082Z,43.73
2022-08-26T06:28:37.808Z,43.14
2022-08-26T06:31:06.038Z,43.33
2022-08-26T06:33:33.269Z,43.17
2022-08-26T06:36:01.091Z,43.43
2022-08-26T06:38:27.829Z,42.79
2022-08-26T06:40:59.680Z,43.25
2022-08-26T06:43:27.486Z,43.30
2022-08-26T06:46:04.288Z,42.93
2022-08-26T06:48:31.873Z,42.40
2022-08-26T06:51:09.577Z,41.00
2022-08-26T06:53:36.852Z,39.20
2022-08-26T06:56:07.851Z,37.41
2022-08-26T06:58:37.878Z,37.54
2022-08-26T07:01:09.533Z,37.77
2022-08-26T07:03:39.699Z,38.81
2022-08-26T07:06:06.669Z,38.34
2022-08-26T07:08:33.834Z,39.48
2022-08-26T07:11:04.274Z,39.44
2022-08-26T07:13:31.557Z,38.83
2022-08-26T07:15:58.175Z,39.23
2022-08-26T07:18:29.489Z,38.78
2022-08-26T07:20:56.157Z,39.48
2022-08-26T07:23:22.981Z,39.68
2022-08-26T07:25:49.733Z,39.48
2022-08-26T07:28:16.432Z,39.23
2022-08-26T07:30:43.452Z,40.13
2022-08-26T07:33:10.026Z,39.51
2022-08-26T07:35:37.840Z,39.52
2022-08-26T07:38:04.334Z,39.24
2022-08-26T07:40:32.092Z,39.13
2022-08-26T07:42:58.696Z,38.71
2022-08-26T07:45:27.686Z,38.97
2022-08-26T07:47:54.351Z,39.22
2022-08-26T07:50:22.338Z,38.50
2022-08-26T07:53:10.611Z,39.40
2022-08-26T07:55:37.466Z,39.19
2022-08-26T07:58:05.577Z,38.96
2022-08-26T08:00:33.043Z,38.83
2022-08-26T08:03:03.892Z,38.77
2022-08-26T08:05:33.487Z,38.54
2022-08-26T08:08:17.335Z,37.96
2022-08-26T08:10:48.923Z,38.33
2022-08-26T08:13:18.079Z,37.65
2022-08-26T08:15:48.296Z,37.90
2022-08-26T08:18:17.430Z,36.51
2022-08-26T08:20:47.638Z,37.16
2022-08-26T08:23:31.632Z,36.31
2022-08-26T08:26:02.645Z,35.62
2022-08-26T08:28:29.206Z,35.15
2022-08-26T08:30:56.444Z,35.15
2022-08-26T08:33:24.453Z,34.83
2022-08-26T08:35:51.037Z,34.67
2022-08-26T08:38:17.861Z,33.99
2022-08-26T08:40:45.513Z,32.76
2022-08-26T08:43:15.892Z,31.21
2022-08-26T08:45:45.001Z,30.91
2022-08-26T08:48:27.677Z,30.35
2022-08-26T08:51:05.056Z,31.10
2022-08-26T08:53:33.921Z,31.95
2022-08-26T08:56:26.341Z,32.19
2022-08-26T08:59:11.550Z,31.72
2022-08-26T09:01:52.579Z,32.42
2022-08-26T09:04:20.815Z,32.29
2022-08-26T09:06:49.232Z,32.48
2022-08-26T09:09:24.045Z,33.15
2022-08-26T09:11:50.596Z,31.76
2022-08-26T09:14:17.693Z,29.77
2022-08-26T09:17:01.500Z,27.87
2022-08-26T09:19:32.082Z,28.64
2022-08-26T09:21:59.661Z,29.91
2022-08-26T09:24:28.643Z,29.83
2022-08-26T09:26:58.264Z,29.69
2022-08-26T09:29:26.538Z,27.52
2022-08-26T09:32:12.930Z,28.00
2022-08-26T09:34:52.148Z,28.86
2022-08-26T09:37:32.526Z,28.14
2022-08-26T09:40:23.250Z,24.37
2022-08-26T09:43:07.731Z,23.90
2022-08-26T09:45:35.782Z,25.17
2022-08-26T09:48:02.862Z,26.39
2022-08-26T09:50:36.153Z,27.15
2022-08-26T09:53:09.883Z,27.95
2022-08-26T09:55:41.929Z,29.03
2022-08-26T09:58:12.291Z,28.62
2022-08-26T10:00:41.078Z,28.80
2022-08-26T10:03:10.829Z,25.73
2022-08-26T10:05:37.469Z,25.74
2022-08-26T10:08:26.643Z,25.81
2022-08-26T10:10:55.317Z,24.19
2022-08-26T10:13:29.488Z,19.79
2022-08-26T10:16:00.487Z,16.45
2022-08-26T10:18:47.953Z,14.11
2022-08-26T10:21:25.879Z,12.06
2022-08-26T10:23:55.439Z,11.19
2022-08-26T10:26:40.347Z,10.54
2022-08-26T10:29:07.860Z,9.92
2022-08-26T10:31:44.696Z,9.96
2022-08-26T10:34:13.892Z,9.81
2022-08-26T10:37:15.041Z,9.46
2022-08-26T10:40:03.090Z,9.00
2022-08-26T10:42:33.370Z,8.85
2022-08-26T10:45:03.286Z,8.29
2022-08-26T10:47:52.193Z,7.92
2022-08-26T10:50:19.786Z,7.96
2022-08-26T10:53:06.108Z,7.74
2022-08-26T10:55:39.567Z,7.66
2022-08-26T10:58:26.653Z,8.02
2022-08-26T11:01:41.741Z,7.71
2022-08-26T11:04:14.484Z,8.35
2022-08-26T11:06:41.875Z,8.11
2022-08-26T11:09:08.786Z,8.54
2022-08-26T11:11:41.403Z,8.49
2022-08-26T11:14:31.422Z,7.84
2022-08-26T11:17:08.949Z,7.65
2022-08-26T11:19:50.857Z,7.52
2022-08-26T11:22:26.871Z,7.21
2022-08-26T11:24:53.449Z,7.59
2022-08-26T11:27:25.988Z,7.61
2022-08-26T11:30:11.300Z,7.36
2022-08-26T11:32:39.983Z,7.21
2022-08-26T11:35:06.580Z,6.70
2022-08-26T11:37:40.626Z,6.89
2022-08-26T11:40:21.895Z,6.89
2022-08-26T11:43:05.575Z,7.24
2022-08-26T11:45:45.705Z,7.54
2022-08-26T11:48:20.150Z,7.87
2022-08-26T11:50:53.893Z,7.31
2022-08-26T11:53:21.213Z,7.67
2022-08-26T11:55:51.822Z,7.29
2022-08-26T11:58:20.443Z,7.08
2022-08-26T12:00:58.449Z,6.92
2022-08-26T12:03:31.422Z,8.01
2022-08-26T12:05:58.763Z,8.35
2022-08-26T12:08:27.918Z,8.88
2022-08-26T12:11:09.148Z,9.85
2022-08-26T12:13:39.252Z,10.80
2022-08-26T12:16:06.309Z,11.33
2022-08-26T12:18:34.465Z,12.53
2022-08-26T12:21:10.462Z,11.41
2022-08-26T12:23:41.365Z,11.82
2022-08-26T12:26:11.538Z,13.55
2022-08-26T12:28:53.944Z,16.25
2022-08-26T12:31:22.807Z,16.56
2022-08-26T12:33:49.938Z,17.71
2022-08-26T12:36:21.937Z,18.72
2022-08-26T12:38:48.832Z,19.51
2022-08-26T12:41:34.253Z,20.86
2022-08-26T12:44:00.910Z,21.82
2022-08-26T12:46:28.830Z,21.51
2022-08-26T12:49:01.034Z,22.58
2022-08-26T12:51:29.075Z,22.30
2022-08-26T12:53:56.020Z,22.86
2022-08-26T12:56:39.440Z,22.76
2022-08-26T12:59:10.257Z,22.46
2022-08-26T13:01:40.826Z,23.69
2022-08-26T13:04:07.591Z,23.28
2022-08-26T13:06:35.077Z,23.31
2022-08-26T13:09:27.827Z,23.57
2022-08-26T13:11:54.287Z,23.72
2022-08-26T13:14:24.376Z,23.27
2022-08-26T13:16:53.275Z,23.65
2022-08-26T13:19:22.156Z,23.40
2022-08-26T13:21:50.611Z,23.50
2022-08-26T13:24:19.805Z,23.62
2022-08-26T13:26:47.279Z,24.54
2022-08-26T13:29:13.918Z,23.76
2022-08-26T13:31:41.680Z,23.47
2022-08-26T13:34:09.749Z,23.09
2022-08-26T13:36:36.653Z,23.31
2022-08-26T13:39:03.781Z,23.29
2022-08-26T13:41:31.958Z,23.19
2022-08-26T13:43:59.484Z,22.41
2022-08-26T13:46:26.790Z,22.40
2022-08-26T13:48:55.920Z,22.85
2022-08-26T13:51:22.938Z,21.33
2022-08-26T13:53:52.870Z,21.50
2022-08-26T13:56:19.735Z,21.36
2022-08-26T13:58:46.931Z,21.75
2022-08-26T14:01:14.468Z,21.35
2022-08-26T14:03:41.713Z,21.62
2022-08-26T14:06:08.794Z,22.34
2022-08-26T14:08:36.881Z,22.33
2022-08-26T14:11:03.410Z,22.55
2022-08-26T14:13:29.990Z,22.85
2022-08-26T14:15:58.722Z,23.15
2022-08-26T14:18:31.052Z,23.33
2022-08-26T14:20:58.174Z,22.95
2022-08-26T14:23:25.508Z,23.79
2022-08-26T14:25:52.713Z,23.76
2022-08-26T14:28:19.280Z,24.11
2022-08-26T14:30:50.158Z,24.37
2022-08-26T14:33:18.531Z,24.33
2022-08-26T14:35:48.809Z,23.85
2022-08-26T14:38:16.852Z,23.69
2022-08-26T14:40:44.960Z,23.35
2022-08-26T14:43:13.812Z,24.25
2022-08-26T14:48:09.670Z,24.83
2022-08-26T14:50:36.450Z,25.32
2022-08-26T14:53:21.825Z,25.70
2022-08-26T14:55:48.739Z,25.34
2022-08-26T14:58:15.337Z,25.14
2022-08-26T15:00:42.153Z,24.47
2022-08-26T15:03:09.135Z,24.93
2022-08-26T15:05:35.764Z,24.45
2022-08-26T15:08:10.359Z,24.67
2022-08-26T15:10:37.452Z,24.73
2022-08-26T15:13:04.293Z,25.10
2022-08-26T15:15:30.978Z,24.83
2022-08-26T15:17:57.536Z,25.14
2022-08-26T15:20:24.291Z,25.54
2022-08-26T15:22:50.873Z,25.41
2022-08-26T15:25:17.874Z,25.50
2022-08-26T15:27:44.621Z,26.21
2022-08-26T15:30:11.986Z,26.14
2022-08-26T15:32:38.549Z,26.96
2022-08-26T15:35:08.818Z,27.31
2022-08-26T15:37:35.986Z,27.63
2022-08-26T15:40:02.922Z,28.00
2022-08-26T15:42:29.695Z,28.21
2022-08-26T15:44:56.239Z,28.91
2022-08-26T15:47:23.790Z,29.68
2022-08-26T15:49:50.504Z,29.72
2022-08-26T15:52:17.343Z,30.32
2022-08-26T15:54:43.973Z,30.10
2022-08-26T15:57:15.316Z,30.67
2022-08-26T15:59:43.074Z,29.55
2022-08-26T16:02:09.821Z,30.20
2022-08-26T16:04:36.966Z,30.51
2022-08-26T16:07:04.231Z,30.71
2022-08-26T16:09:31.011Z,31.35
2022-08-26T16:11:58.422Z,32.24
2022-08-26T16:14:25.156Z,32.78
2022-08-26T16:16:51.834Z,32.66
2022-08-26T16:19:18.609Z,34.25
2022-08-26T16:21:45.365Z,34.67
2022-08-26T16:24:12.747Z,34.31
2022-08-26T16:26:40.498Z,35.46
2022-08-26T16:29:08.653Z,35.50
2022-08-26T16:31:35.508Z,36.15
2022-08-26T16:34:02.183Z,35.71
2022-08-26T16:36:28.780Z,36.41
2022-08-26T16:38:56.637Z,36.34
2022-08-26T16:41:24.348Z,37.44
2022-08-26T16:43:51.510Z,37.01
2022-08-26T16:46:18.813Z,37.36
2022-08-26T16:48:45.820Z,37.20
2022-08-26T16:51:18.897Z,37.88
2022-08-26T16:53:45.809Z,37.95
2022-08-26T16:56:16.373Z,37.79
2022-08-26T16:58:42.932Z,38.70
2022-08-26T17:01:09.565Z,38.44
2022-08-26T17:03:36.147Z,38.59
2022-08-26T17:06:02.727Z,39.16
2022-08-26T17:08:30.420Z,38.52
2022-08-26T17:10:59.323Z,38.82
2022-08-26T17:13:35.364Z,39.26
2022-08-26T17:16:04.242Z,39.21
2022-08-26T17:18:31.023Z,38.70
2022-08-26T17:21:00.326Z,39.35
2022-08-26T17:23:26.904Z,39.40
2022-08-26T17:25:53.591Z,39.45
2022-08-26T17:28:20.199Z,39.69
2022-08-26T17:30:46.728Z,39.83
2022-08-26T17:33:13.378Z,39.94
2022-08-26T17:35:40.139Z,39.88
2022-08-26T17:38:07.280Z,40.28
2022-08-26T17:40:35.003Z,41.22
2022-08-26T17:43:01.674Z,40.88
2022-08-26T17:45:28.986Z,40.56
2022-08-26T17:47:56.004Z,40.24
2022-08-26T17:50:23.117Z,40.21
2022-08-26T17:52:49.834Z,39.98
2022-08-26T17:55:18.130Z,40.09
2022-08-26T17:57:47.745Z,40.38
2022-08-26T18:00:21.711Z,40.63
2022-08-26T18:02:51.327Z,40.90
2022-08-26T18:05:18.179Z,41.01
2022-08-26T18:07:44.921Z,40.59
2022-08-26T18:10:13.580Z,40.76
2022-08-26T18:12:41.044Z,41.02
2022-08-26T18:15:08.304Z,40.96
2022-08-26T18:17:35.128Z,40.64
2022-08-26T18:20:01.971Z,40.56
2022-08-26T18:22:28.861Z,40.98
2022-08-26T18:24:59.076Z,41.02
2022-08-26T18:27:26.458Z,40.01
2022-08-26T18:29:53.069Z,40.47
2022-08-26T18:32:19.681Z,40.23
2022-08-26T18:34:46.309Z,41.00
2022-08-26T18:37:14.419Z,40.96
2022-08-26T18:39:41.754Z,41.25
2022-08-26T18:42:08.926Z,41.29
2022-08-26T18:44:35.680Z,41.35
2022-08-26T18:47:02.478Z,41.20
2022-08-26T18:49:29.382Z,41.16
2022-08-26T18:51:56.017Z,41.15
2022-08-26T18:54:22.931Z,41.27
2022-08-26T18:56:55.575Z,42.12
2022-08-26T18:59:29.582Z,41.92
2022-08-26T19:01:57.415Z,41.49
2022-08-26T19:04:24.351Z,41.98
2022-08-26T19:06:51.400Z,41.70
2022-08-26T19:09:21.206Z,42.32
2022-08-26T19:11:49.590Z,42.01
2022-08-26T19:14:16.713Z,42.67
2022-08-26T19:16:46.352Z,42.49
2022-08-26T19:19:13.262Z,42.79
2022-08-26T19:21:40.347Z,42.33
2022-08-26T19:24:09.314Z,43.27
2022-08-26T19:26:36.826Z,42.89
2022-08-26T19:29:03.630Z,43.47
2022-08-26T19:31:31.301Z,43.42
2022-08-26T19:34:01.045Z,43.45
2022-08-26T19:36:28.480Z,43.97
2022-08-26T19:38:56.522Z,43.86
2022-08-26T19:41:31.657Z,43.74
2022-08-26T19:44:05.018Z,44.27
2022-08-26T19:46:32.351Z,43.87
2022-08-26T19:48:58.957Z,44.03
2022-08-26T19:51:28.449Z,44.36
2022-08-26T19:53:56.266Z,44.54
2022-08-26T19:56:22.945Z,43.88
2022-08-26T19:58:50.170Z,43.91
2022-08-26T20:01:17.800Z,43.95
2022-08-26T20:03:45.003Z,43.93
2022-08-26T20:06:12.432Z,44.33
2022-08-26T20:08:40.008Z,43.38
2022-08-26T20:11:09.450Z,44.15
2022-08-26T20:13:36.656Z,43.96
2022-08-26T20:16:03.515Z,43.76
2022-08-26T20:18:48.688Z,44.27
2022-08-26T20:21:26.966Z,43.95
2022-08-26T20:23:59.192Z,43.87
2022-08-26T20:26:26.711Z,43.80
2022-08-26T20:28:53.796Z,43.95
2022-08-26T20:31:20.492Z,44.19
2022-08-26T20:33:47.071Z,44.61
2022-08-26T20:36:14.816Z,44.57
2022-08-26T20:38:41.374Z,45.04
2022-08-26T20:41:08.044Z,44.99
2022-08-26T20:43:34.570Z,44.54
2022-08-26T20:46:01.391Z,44.53
2022-08-26T20:48:28.060Z,44.78
2022-08-26T20:50:59.306Z,45.05
2022-08-26T20:53:27.328Z,44.84
2022-08-26T20:55:54.926Z,45.36
2022-08-26T20:58:23.579Z,45.27
2022-08-26T21:00:50.126Z,45.11
2022-08-26T21:03:16.717Z,45.27
2022-08-26T21:05:43.258Z,45.54
2022-08-26T21:08:13.536Z,45.11
2022-08-26T21:10:40.377Z,45.73
2022-08-26T21:13:07.083Z,45.60
2022-08-26T21:15:35.136Z,45.44
2022-08-26T21:18:01.756Z,45.90
2022-08-26T21:20:28.304Z,45.58
2022-08-26T21:22:54.862Z,46.06
2022-08-26T21:25:21.569Z,45.94
2022-08-26T21:27:48.096Z,46.17
2022-08-26T21:30:15.225Z,45.83
2022-08-26T21:32:42.060Z,45.77
2022-08-26T21:35:08.895Z,46.03
2022-08-26T21:37:35.527Z,46.50
2022-08-26T21:40:03.546Z,46.31
2022-08-26T21:42:31.691Z,46.33
2022-08-26T21:44:58.628Z,46.06
2022-08-26T21:47:25.214Z,46.26
2022-08-26T21:49:52.305Z,46.57
2022-08-26T21:52:18.883Z,46.25
2022-08-26T21:54:49.415Z,45.54
2022-08-26T21:57:16.600Z,45.86
2022-08-26T21:59:43.104Z,45.53
2022-08-26T22:02:10.954Z,46.22
2022-08-26T22:04:37.678Z,46.42
2022-08-26T22:07:04.937Z,46.29
2022-08-26T22:09:31.622Z,46.30
2022-08-26T22:11:58.625Z,46.30
2022-08-26T22:14:30.687Z,46.79
2022-08-26T22:16:58.610Z,46.78
2022-08-26T22:19:25.220Z,47.02
2022-08-26T22:21:53.200Z,46.77
2022-08-26T22:24:20.895Z,46.40
2022-08-26T22:26:48.123Z,46.66
2022-08-26T22:29:14.992Z,46.79
2022-08-26T22:31:43.533Z,46.71
2022-08-26T22:34:11.535Z,47.03
2022-08-26T22:36:43.324Z,46.84
2022-08-26T22:39:12.399Z,46.75
2022-08-26T22:41:39.153Z,46.68
2022-08-26T22:44:05.769Z,46.95
2022-08-26T22:46:34.846Z,46.69
2022-08-26T22:49:01.420Z,47.08
2022-08-26T22:51:28.330Z,46.87
2022-08-26T22:53:54.900Z,46.70
2022-08-26T22:56:22.048Z,47.21
2022-08-26T22:58:48.595Z,46.88
2022-08-26T23:01:16.834Z,47.67
2022-08-26T23:03:43.971Z,47.18
2022-08-26T23:06:13.109Z,48.04
2022-08-26T23:08:41.964Z,48.15
2022-08-26T23:11:09.800Z,48.89
2022-08-26T23:13:36.599Z,48.71
2022-08-26T23:16:04.577Z,48.73
2022-08-26T23:18:31.403Z,48.89
2022-08-26T23:20:57.983Z,49.33
2022-08-26T23:23:24.610Z,49.65
2022-08-26T23:25:51.434Z,50.02
2022-08-26T23:28:17.878Z,50.13
2022-08-26T23:30:44.383Z,50.53
2022-08-26T23:33:11.047Z,50.65
2022-08-26T23:35:37.582Z,51.22
2022-08-26T23:38:06.737Z,51.16
2022-08-26T23:40:36.863Z,50.84
2022-08-26T23:43:04.812Z,51.00
2022-08-26T23:45:31.898Z,51.40
2022-08-26T23:47:59.103Z,51.74
2022-08-26T23:50:49.210Z,52.11
2022-08-26T23:53:19.445Z,52.29
2022-08-26T23:55:48.266Z,52.76
2022-08-26T23:58:19.134Z,53.37
